• Join FlightAware (Why Join?)
  • Login
  • US Flag 
10:45PM EDT


 

Airport Tracker/Info


-or-


 

Live Flight TrackerFlight Track Log ✈ RPA3333 ✈ 15-Jun-2014 ✈ KMSY - KDCA

Flight Track Log - Related Links

Times and Time Zones

All times are in EDT time to prevent confusion due to time zone crossing. See the RPA3333 flight status page for this flight to view local times or setup timezone preferences in your user account.

Time Position Orientation Groundspeed Altitude Reporting Facility
EDT Latitude Longitude Course Direction KTS MPH feet Rate Location/Type
06:58AM 29.9958 -90.2819 49° Northeast 444 511 400  Level Houston Center
06:59AM 30.0028 -90.3033 291° West 176 203 1,400 2,040 Climbing Houston Center
07:00AM 30.0417 -90.3522 313° West 246 283 3,300 1,860 Climbing Houston Center
07:01AM 30.1724 -89.9920 50° Northeast  Level FlightAware Approximate
07:01AM 30.1033 -90.3375 12° North 270 311 5,000  Level Houston Center
07:02AM 30.2371 -89.9015 50° Northeast  Level FlightAware Approximate
07:02AM 30.1767 -90.2925 28° Northeast 289 333 8,100  Level Houston Center
07:03AM 30.2996 -89.8089 52° Northeast  Level FlightAware Approximate
07:03AM 30.2456 -90.2369 35° Northeast 298 343 10,700  Level Houston Center
07:04AM 30.3625 -89.7167 49° Northeast  Level FlightAware Approximate
07:04AM 30.3078 -90.1592 47° Northeast 324 373 12,600  Level Houston Center
07:05AM 30.3739 -90.0806 46° Northeast 335 386 14,700 1,680 Climbing Houston Center
07:06AM 30.4317 -89.9817 56° Northeast 363 418 16,100 1,440 Climbing Houston Center
07:07AM 30.4908 -89.8781 56° Northeast 374 430 17,700 1,500 Climbing Houston Center
07:08AM 30.5461 -89.7686 60° Northeast 384 442 19,200 1,500 Climbing Houston Center
07:09AM 30.6028 -89.6586 59° Northeast 390 449 20,800 1,620 Climbing Houston Center
07:10AM 30.6586 -89.5469 60° Northeast 394 453 22,500 1,680 Climbing Houston Center
07:11AM 30.7169 -89.4325 59° Northeast 405 466 24,300 1,560 Climbing Houston Center
07:12AM 30.7753 -89.3164 60° Northeast 411 473 25,700 1,200 Climbing Houston Center
07:13AM 30.8347 -89.1953 60° Northeast 430 495 26,800 960 Climbing Houston Center
07:14AM 30.8958 -89.0717 60° Northeast 440 506 27,700 840 Climbing Houston Center
07:15AM 30.9592 -88.9442 60° Northeast 453 521 28,600 960 Climbing Houston Center
07:16AM 31.0278 -88.8081 60° Northeast 459 528 29,700 960 Climbing Houston Center
07:17AM 31.0933 -88.6758 60° Northeast 467 537 30,600 600 Climbing Houston Center
07:18AM 31.1539 -88.5519 60° Northeast 468 539 31,000 360 Climbing Houston Center
07:19AM 31.2158 -88.4242 60° Northeast 458 527 31,400 840 Climbing Houston Center
07:20AM 31.2819 -88.2922 60° Northeast 432 497 32,700 780 Climbing Houston Center
07:21AM 31.3414 -88.1719 60° Northeast 427 491 33,000 120 Climbing Houston Center
07:22AM 31.3983 -88.0531 61° Northeast 423 487 33,000  Level Houston Center
07:23AM 31.4550 -87.9353 61° Northeast 417 480 33,000  Level Houston Center
07:24AM 31.5114 -87.8197 60° Northeast 412 474 33,000  Level Houston Center
07:25AM 31.5667 -87.7036 61° Northeast 411 473 33,000  Level Houston Center
07:26AM 31.6225 -87.5881 60° Northeast 409 471 33,000  Level Houston Center
07:27AM 31.6775 -87.4725 61° Northeast 408 470 33,000  Level Houston Center
07:28AM 31.7339 -87.3567 60° Northeast 408 470 33,000  Level Houston Center
07:29AM 31.7892 -87.2394 61° Northeast 409 471 33,000  Level Houston Center
07:30AM 31.8439 -87.1222 61° Northeast 409 471 33,000  Level Houston Center
07:31AM 31.8983 -87.0067 61° Northeast 406 467 33,000  Level Houston Center
07:32AM 31.9544 -86.8919 60° Northeast 406 467 33,000  Level Houston Center
07:33AM 32.0081 -86.7767 61° Northeast 404 465 33,000  Level Houston Center
07:34AM 32.0892 -86.6153 59° Northeast 395 455 33,000  Level Atlanta Center
07:35AM 32.1436 -86.5017 60° Northeast 395 455 33,000  Level Atlanta Center
07:36AM 32.1983 -86.3781 62° Northeast 388 447 33,000  Level Atlanta Center
07:37AM 32.2567 -86.2664 58° Northeast 383 441 33,000  Level Atlanta Center
07:38AM 32.3231 -86.1650 52° Northeast 389 448 33,000  Level Atlanta Center
07:39AM 32.3939 -86.0608 51° Northeast 395 455 33,000  Level Atlanta Center
07:40AM 32.4558 -85.9711 51° Northeast 395 455 33,000  Level Atlanta Center
07:41AM 32.5306 -85.8644 50° Northeast 390 449 33,000  Level Atlanta Center
07:42AM 32.5986 -85.7647 51° Northeast 397 457 33,000  Level Atlanta Center
07:43AM 32.6647 -85.6625 52° Northeast 391 450 33,000  Level Atlanta Center
07:44AM 32.7328 -85.5575 52° Northeast 391 450 33,000 60 Level Atlanta Center
07:45AM 32.8031 -85.4550 51° Northeast 391 450 33,200 300 Climbing Atlanta Center
07:46AM 32.8708 -85.3497 53° Northeast 391 450 33,700 360 Climbing Atlanta Center
07:47AM 32.9408 -85.2442 52° Northeast 391 450 34,000 120 Climbing Atlanta Center
07:48AM 33.0172 -85.1314 51° Northeast 396 456 34,000  Level Atlanta Center
07:49AM 33.0869 -85.0256 52° Northeast 391 450 34,000 120 Level Atlanta Center
07:50AM 33.1567 -84.9197 52° Northeast 391 450 34,300 360 Climbing Atlanta Center
07:51AM 33.2261 -84.8136 52° Northeast 391 450 34,800 300 Climbing Atlanta Center
07:52AM 33.2956 -84.7072 52° Northeast 391 450 35,000 60 Climbing Atlanta Center
07:53AM 33.3631 -84.6008 53° Northeast 391 450 35,000  Level Atlanta Center
07:54AM 33.4261 -84.5042 52° Northeast 396 456 35,000  Level Atlanta Center
07:55AM 33.4931 -84.3975 53° Northeast 396 456 35,000  Level Atlanta Center
07:56AM 33.5622 -84.2906 52° Northeast 396 456 35,000  Level Atlanta Center
07:57AM 33.6314 -84.1811 53° Northeast 396 456 35,000  Level Atlanta Center
07:58AM 33.7003 -84.0739 52° Northeast 396 456 35,000  Level Atlanta Center
07:59AM 33.7672 -83.9689 52° Northeast 396 456 35,000  Level Atlanta Center
08:00AM 33.8358 -83.8611 53° Northeast 391 450 35,000  Level Atlanta Center
08:01AM 33.9044 -83.7561 52° Northeast 391 450 35,000  Level Atlanta Center
08:02AM 33.9731 -83.6481 53° Northeast 391 450 35,000  Level Atlanta Center
08:03AM 34.0394 -83.5425 53° Northeast 391 450 35,000  Level Atlanta Center
08:04AM 34.1081 -83.4342 53° Northeast 391 450 35,000  Level Atlanta Center
08:05AM 34.1761 -83.3256 53° Northeast 391 450 35,000  Level Atlanta Center
08:06AM 34.2444 -83.2194 52° Northeast 391 450 35,000  Level Atlanta Center
08:07AM 34.3106 -83.1108 54° Northeast 391 450 35,000  Level Atlanta Center
08:08AM 34.3742 -83.0019 55° Northeast 391 450 35,000  Level Atlanta Center
08:09AM 34.4422 -82.8928 53° Northeast 391 450 35,000  Level Atlanta Center
08:10AM 34.5036 -82.7836 56° Northeast 391 450 35,000  Level Atlanta Center
08:11AM 34.5692 -82.6714 55° Northeast 397 457 35,000  Level Atlanta Center
08:12AM 34.6325 -82.5442 59° Northeast 402 463 35,000  Level Atlanta Center
08:13AM 34.6767 -82.4172 67° East 402 463 35,000  Level Atlanta Center
08:14AM 34.7211 -82.2925 67° East 402 463 35,000  Level Atlanta Center
08:15AM 34.7650 -82.1653 67° East 402 463 35,000  Level Atlanta Center
08:16AM 34.8239 -82.0525 58° Northeast 395 455 35,000  Level Atlanta Center
08:17AM 34.8889 -81.9472 53° Northeast 388 447 35,000  Level Atlanta Center
08:18AM 34.9558 -81.8417 52° Northeast 388 447 35,000  Level Atlanta Center
08:19AM 35.0186 -81.7358 54° Northeast 388 447 35,000  Level Atlanta Center
08:20AM 35.0833 -81.6250 54° Northeast 388 447 35,000  Level Atlanta Center
08:21AM 35.1458 -81.5189 54° Northeast 388 447 35,000 -420 Level Atlanta Center
08:22AM 35.2083 -81.4128 54° Northeast 388 447 34,200 -900 Descending Atlanta Center
08:23AM 35.2706 -81.3042 55° Northeast 388 447 33,300 -960 Descending Atlanta Center
08:24AM 35.3286 -81.2028 55° Northeast 393 452 32,300 -1,020 Descending Atlanta Center
08:25AM 35.3950 -81.0911 54° Northeast 393 452 31,300 -660 Descending Atlanta Center
08:26AM 35.4611 -80.9817 53° Northeast 393 452 31,000 -180 Descending Atlanta Center
08:27AM 35.5272 -80.8694 54° Northeast 393 452 31,000  Level Atlanta Center
08:28AM 35.5931 -80.7597 54° Northeast 393 452 31,000  Level Atlanta Center
08:29AM 35.6567 -80.6472 55° Northeast 393 452 31,000  Level Atlanta Center
08:30AM 35.7225 -80.5394 53° Northeast 388 447 31,000  Level Atlanta Center
08:32AM 35.8275 -80.3544 55° Northeast 396 456 31,000  Level Washington Center
08:33AM 35.8925 -80.2431 54° Northeast 396 456 31,000  Level Washington Center
08:34AM 35.9572 -80.1314 54° Northeast 396 456 31,000  Level Washington Center
08:35AM 36.0111 -80.0344 55° Northeast 390 449 31,000  Level Washington Center
08:36AM 36.0778 -79.9225 54° Northeast 396 456 31,000  Level Washington Center
08:37AM 36.1403 -79.8103 55° Northeast 396 456 31,000  Level Washington Center
08:38AM 36.2156 -79.6803 54° Northeast 403 464 31,000  Level Washington Center
08:39AM 36.2778 -79.5650 56° Northeast 403 464 31,000  Level Washington Center
08:40AM 36.3356 -79.4647 54° Northeast 403 464 31,000  Level Washington Center
08:41AM 36.4042 -79.3392 56° Northeast 403 464 31,000  Level Washington Center
08:42AM 36.4703 -79.2236 55° Northeast 403 464 31,000 -120 Level Washington Center
08:43AM 36.5297 -79.1228 54° Northeast 404 465 30,800 -1,200 Descending Washington Center
08:44AM 36.5914 -79.0119 55° Northeast 398 458 28,600 -2,220 Descending Washington Center
08:45AM 36.6572 -78.8906 56° Northeast 403 464 26,400 -1,860 Descending Washington Center
08:46AM 36.7319 -78.7536 56° Northeast 421 484 25,000 -720 Descending Washington Center
08:47AM 36.7844 -78.6547 56° Northeast 401 461 25,000  Level Washington Center
08:48AM 36.8500 -78.5378 55° Northeast 381 438 25,000  Level Washington Center
08:49AM 36.9025 -78.4386 56° Northeast 376 433 25,000 -240 Level Washington Center
08:50AM 36.9678 -78.3214 55° Northeast 376 433 24,600 -720 Descending Washington Center
08:51AM 37.0036 -78.2136 67° East 362 417 23,600 -840 Descending Washington Center
08:52AM 37.0208 -78.0892 80° East 355 409 23,000 -360 Descending Washington Center
08:53AM 37.0381 -77.9650 80° East 355 409 23,000  Level Washington Center
08:54AM 37.0553 -77.8353 81° East 360 414 23,000  Level Washington Center
08:55AM 37.0719 -77.7133 80° East 360 414 23,000  Level Washington Center
08:56AM 37.1031 -77.5969 71° East 360 414 23,000  Level Washington Center
08:57AM 37.1981 -77.5292 30° Northeast 346 398 23,000  Level Washington Center
08:58AM 37.2953 -77.4636 28° Northeast 363 418 23,000 -300 Level Washington Center
08:59AM 37.3900 -77.3981 29° Northeast 376 433 22,500 -540 Descending Washington Center
09:00AM 37.4828 -77.3347 28° Northeast 381 438 22,000 -300 Descending Washington Center
09:01AM 37.5875 -77.3031 13° North 375 432 22,000 -240 Level Washington Center
09:02AM 37.6900 -77.2819 North 370 426 21,600 -1,200 Descending Washington Center
09:03AM 37.7883 -77.2603 10° North 365 420 19,600 -1,860 Descending Washington Center
09:04AM 37.8886 -77.2417 North 365 420 18,000 -1,920 Descending Washington Center
09:05AM 37.9828 -77.2200 10° North 359 413 15,900 -1,920 Descending Washington Center
09:06AM 38.0747 -77.2033 North 340 391 14,200 -1,740 Descending Washington Center
09:07AM 38.1628 -77.1842 10° North 332 382 12,500 -1,740 Descending Washington Center
09:08AM 38.2464 -77.1647 10° North 321 369 10,800 -1,260 Descending Washington Center
09:09AM 38.3217 -77.1425 13° North 301 346 10,000 -600 Descending Washington Center
09:10AM 38.3311 -77.0475 83° East 215 247 9,700 -420 Descending Washington Center
09:11AM 38.3403 -76.9761 81° East 206 237 9,200 -660 Descending Washington Center
09:12AM 38.3761 -76.9425 36° Northeast 206 237 8,400 -840 Descending Washington Center
09:13AM 38.4133 -76.9908 315° West 112 129 7,600 -840 Descending Washington Center
09:14AM 38.4653 -76.9997 352° North 149 171 6,800 -900 Descending Washington Center
09:15AM 38.5131 -77.0058 354° North 166 191 5,900 -900 Descending Washington Center
09:16AM 38.5589 -77.0094 356° North 166 191 5,100 -720 Descending Washington Center
09:18AM 38.6500 -77.0167 356° North 165 190 3,800 -780 Descending Potomac TRACON
09:19AM 38.7000 -77.0167 360° North 164 189 3,000 -960 Descending Potomac TRACON
09:20AM 38.7500 -77.0333 345° North 167 192 2,000 -900 Descending Potomac TRACON
09:21AM 38.7833 -77.0333 360° North 162 186 1,200 -720 Descending Potomac TRACON
09:22AM 38.8167 -77.0167 21° North 134 154 600 -600 Descending Potomac TRACON